Terminal Aerodrome Forecast
Issued by NWS Sterling, VA

Current Version | Previous Version | Text Only | Print | Product List | Glossary Off
Versions: 1 2 3 4 5 6 7 8 9 10 11 12 13 14 15 16 17 18 19 20 21 22 23 24

000
FTUS41 KLWX 181121
TAFDCA
TAF
KDCA 181121Z 1812/1912 19009KT P6SM BKN200 WS020/21040KT
     FM181700 19010G18KT P6SM OVC100
     FM190600 20014G23KT P6SM -SHRA OVC045
     FM190900 22015G24KT P6SM -SHRA OVC030=

USA.gov is the U.S. government's official web portal to all federal, state and local government web resources and services.